sensor_id;sensor_type;location;lat;lon;timestamp;temperature;humidity
43183;DHT22;28802;38.578;-0.066;2022-08-03T00:00:06;27.20;99.90
43183;DHT22;28802;38.578;-0.066;2022-08-03T00:02:38;27.20;99.90
43183;DHT22;28802;38.578;-0.066;2022-08-03T00:05:04;27.20;99.90
43183;DHT22;28802;38.578;-0.066;2022-08-03T00:07:33;27.20;99.90
43183;DHT22;28802;38.578;-0.066;2022-08-03T00:09:59;27.20;99.90
43183;DHT22;28802;38.578;-0.066;2022-08-03T00:12:25;27.30;99.90
43183;DHT22;28802;38.578;-0.066;2022-08-03T00:14:51;27.20;99.90
43183;DHT22;28802;38.578;-0.066;2022-08-03T00:17:17;27.10;99.90
43183;DHT22;28802;38.578;-0.066;2022-08-03T00:19:43;27.10;99.90
43183;DHT22;28802;38.578;-0.066;2022-08-03T00:22:08;27.20;99.90
43183;DHT22;28802;38.578;-0.066;2022-08-03T00:24:34;27.10;99.90
43183;DHT22;28802;38.578;-0.066;2022-08-03T00:27:01;27.00;99.90
43183;DHT22;28802;38.578;-0.066;2022-08-03T00:29:26;26.90;99.90
43183;DHT22;28802;38.578;-0.066;2022-08-03T00:31:52;27.00;99.90
43183;DHT22;28802;38.578;-0.066;2022-08-03T00:34:18;26.90;99.90
43183;DHT22;28802;38.578;-0.066;2022-08-03T00:36:44;26.60;99.90
43183;DHT22;28802;38.578;-0.066;2022-08-03T00:39:10;26.50;99.90
43183;DHT22;28802;38.578;-0.066;2022-08-03T00:41:36;26.50;99.90
43183;DHT22;28802;38.578;-0.066;2022-08-03T00:44:02;26.50;99.90
43183;DHT22;28802;38.578;-0.066;2022-08-03T00:46:28;26.60;99.90
43183;DHT22;28802;38.578;-0.066;2022-08-03T00:48:54;26.50;99.90
43183;DHT22;28802;38.578;-0.066;2022-08-03T00:51:20;26.40;99.90
43183;DHT22;28802;38.578;-0.066;2022-08-03T00:53:47;26.30;99.90
43183;DHT22;28802;38.578;-0.066;2022-08-03T00:56:14;26.30;99.90
43183;DHT22;28802;38.578;-0.066;2022-08-03T00:58:40;26.40;99.90
43183;DHT22;28802;38.578;-0.066;2022-08-03T01:01:08;26.40;99.90
43183;DHT22;28802;38.578;-0.066;2022-08-03T01:03:34;26.30;99.90
43183;DHT22;28802;38.578;-0.066;2022-08-03T01:06:15;26.20;99.90
43183;DHT22;28802;38.578;-0.066;2022-08-03T01:08:57;26.10;99.90
43183;DHT22;28802;38.578;-0.066;2022-08-03T01:11:59;26.10;99.90
43183;DHT22;28802;38.578;-0.066;2022-08-03T01:17:39;26.10;99.90
43183;DHT22;28802;38.578;-0.066;2022-08-03T01:49:44;25.70;99.90
43183;DHT22;28802;38.578;-0.066;2022-08-03T01:52:13;25.70;99.90
43183;DHT22;28802;38.578;-0.066;2022-08-03T01:54:44;25.70;99.90
43183;DHT22;28802;38.578;-0.066;2022-08-03T01:57:10;25.70;99.90
43183;DHT22;28802;38.578;-0.066;2022-08-03T01:59:38;25.70;99.90
43183;DHT22;28802;38.578;-0.066;2022-08-03T02:02:05;25.60;99.90
43183;DHT22;28802;38.578;-0.066;2022-08-03T02:04:33;25.50;99.90
43183;DHT22;28802;38.578;-0.066;2022-08-03T02:07:00;25.50;99.90
43183;DHT22;28802;38.578;-0.066;2022-08-03T02:09:29;25.60;99.90
43183;DHT22;28802;38.578;-0.066;2022-08-03T02:11:56;25.70;99.90
43183;DHT22;28802;38.578;-0.066;2022-08-03T02:14:23;25.80;99.90
43183;DHT22;28802;38.578;-0.066;2022-08-03T02:16:50;25.90;99.90
43183;DHT22;28802;38.578;-0.066;2022-08-03T02:19:18;25.90;99.90
43183;DHT22;28802;38.578;-0.066;2022-08-03T02:21:45;25.70;99.90
43183;DHT22;28802;38.578;-0.066;2022-08-03T02:24:11;25.70;99.90
43183;DHT22;28802;38.578;-0.066;2022-08-03T02:26:39;25.80;99.90
43183;DHT22;28802;38.578;-0.066;2022-08-03T02:29:19;25.80;99.90
43183;DHT22;28802;38.578;-0.066;2022-08-03T02:31:48;25.90;99.90
43183;DHT22;28802;38.578;-0.066;2022-08-03T02:34:15;25.80;99.90
43183;DHT22;28802;38.578;-0.066;2022-08-03T02:36:45;25.70;99.90
43183;DHT22;28802;38.578;-0.066;2022-08-03T02:39:14;25.60;99.90
43183;DHT22;28802;38.578;-0.066;2022-08-03T02:41:44;25.70;99.90
43183;DHT22;28802;38.578;-0.066;2022-08-03T02:44:11;25.70;99.90
43183;DHT22;28802;38.578;-0.066;2022-08-03T02:46:41;25.70;99.90
43183;DHT22;28802;38.578;-0.066;2022-08-03T02:49:11;25.90;99.90
43183;DHT22;28802;38.578;-0.066;2022-08-03T02:51:38;25.70;99.90
43183;DHT22;28802;38.578;-0.066;2022-08-03T02:54:06;25.60;99.90
43183;DHT22;28802;38.578;-0.066;2022-08-03T02:56:34;25.60;99.90
43183;DHT22;28802;38.578;-0.066;2022-08-03T02:59:01;25.60;99.90
43183;DHT22;28802;38.578;-0.066;2022-08-03T03:01:28;25.50;99.90
43183;DHT22;28802;38.578;-0.066;2022-08-03T03:03:55;25.40;99.90
43183;DHT22;28802;38.578;-0.066;2022-08-03T03:06:23;25.20;99.90
43183;DHT22;28802;38.578;-0.066;2022-08-03T03:08:51;25.20;99.90
43183;DHT22;28802;38.578;-0.066;2022-08-03T03:11:20;25.20;99.90
43183;DHT22;28802;38.578;-0.066;2022-08-03T03:13:48;25.20;99.90
43183;DHT22;28802;38.578;-0.066;2022-08-03T03:16:15;25.20;99.90
43183;DHT22;28802;38.578;-0.066;2022-08-03T03:18:44;25.10;99.90
43183;DHT22;28802;38.578;-0.066;2022-08-03T03:21:10;25.00;99.90
43183;DHT22;28802;38.578;-0.066;2022-08-03T03:23:40;24.90;99.90
43183;DHT22;28802;38.578;-0.066;2022-08-03T03:26:06;24.90;99.90
43183;DHT22;28802;38.578;-0.066;2022-08-03T03:28:33;24.90;99.90
43183;DHT22;28802;38.578;-0.066;2022-08-03T03:31:03;24.80;99.90
43183;DHT22;28802;38.578;-0.066;2022-08-03T03:33:29;24.90;99.90
43183;DHT22;28802;38.578;-0.066;2022-08-03T03:35:56;24.90;99.90
43183;DHT22;28802;38.578;-0.066;2022-08-03T03:38:23;24.90;99.90
43183;DHT22;28802;38.578;-0.066;2022-08-03T03:40:49;25.00;99.90
43183;DHT22;28802;38.578;-0.066;2022-08-03T03:43:15;24.90;99.90
43183;DHT22;28802;38.578;-0.066;2022-08-03T03:45:43;24.60;99.90
43183;DHT22;28802;38.578;-0.066;2022-08-03T03:48:10;24.70;99.90
43183;DHT22;28802;38.578;-0.066;2022-08-03T03:50:36;24.80;99.90
43183;DHT22;28802;38.578;-0.066;2022-08-03T03:53:08;24.80;99.90
43183;DHT22;28802;38.578;-0.066;2022-08-03T03:55:35;24.80;99.90
43183;DHT22;28802;38.578;-0.066;2022-08-03T03:58:02;25.00;99.90
43183;DHT22;28802;38.578;-0.066;2022-08-03T04:00:31;25.10;99.90
43183;DHT22;28802;38.578;-0.066;2022-08-03T04:02:57;25.10;99.90
43183;DHT22;28802;38.578;-0.066;2022-08-03T04:05:23;25.10;99.90
43183;DHT22;28802;38.578;-0.066;2022-08-03T04:08:15;25.10;99.90
43183;DHT22;28802;38.578;-0.066;2022-08-03T04:13:46;25.00;99.90
43183;DHT22;28802;38.578;-0.066;2022-08-03T04:16:15;24.70;99.90
43183;DHT22;28802;38.578;-0.066;2022-08-03T04:18:45;24.60;99.90
43183;DHT22;28802;38.578;-0.066;2022-08-03T04:21:14;24.50;99.90
43183;DHT22;28802;38.578;-0.066;2022-08-03T04:23:45;24.50;99.90
43183;DHT22;28802;38.578;-0.066;2022-08-03T04:26:13;24.50;99.90
43183;DHT22;28802;38.578;-0.066;2022-08-03T04:28:42;24.50;99.90
43183;DHT22;28802;38.578;-0.066;2022-08-03T04:31:09;24.50;99.90
43183;DHT22;28802;38.578;-0.066;2022-08-03T04:33:37;24.50;99.90
43183;DHT22;28802;38.578;-0.066;2022-08-03T04:36:06;24.40;99.90
43183;DHT22;28802;38.578;-0.066;2022-08-03T04:38:42;24.40;99.90
43183;DHT22;28802;38.578;-0.066;2022-08-03T04:41:09;24.30;99.90
43183;DHT22;28802;38.578;-0.066;2022-08-03T04:43:37;24.30;99.90
43183;DHT22;28802;38.578;-0.066;2022-08-03T04:46:07;24.40;99.90
43183;DHT22;28802;38.578;-0.066;2022-08-03T04:48:33;24.30;99.90
43183;DHT22;28802;38.578;-0.066;2022-08-03T04:51:00;24.30;99.90
43183;DHT22;28802;38.578;-0.066;2022-08-03T04:53:29;24.30;99.90
43183;DHT22;28802;38.578;-0.066;2022-08-03T04:56:03;24.30;99.90
43183;DHT22;28802;38.578;-0.066;2022-08-03T04:58:30;24.20;99.90
43183;DHT22;28802;38.578;-0.066;2022-08-03T05:00:56;24.20;99.90
43183;DHT22;28802;38.578;-0.066;2022-08-03T05:03:22;24.10;99.90
43183;DHT22;28802;38.578;-0.066;2022-08-03T05:05:47;24.10;99.90
43183;DHT22;28802;38.578;-0.066;2022-08-03T05:08:13;24.00;99.90
43183;DHT22;28802;38.578;-0.066;2022-08-03T05:10:39;23.90;99.90
43183;DHT22;28802;38.578;-0.066;2022-08-03T05:13:05;23.90;99.90
43183;DHT22;28802;38.578;-0.066;2022-08-03T05:15:36;23.80;99.90
43183;DHT22;28802;38.578;-0.066;2022-08-03T05:18:02;23.90;99.90
43183;DHT22;28802;38.578;-0.066;2022-08-03T05:20:28;23.80;99.90
43183;DHT22;28802;38.578;-0.066;2022-08-03T05:22:54;23.90;99.90
43183;DHT22;28802;38.578;-0.066;2022-08-03T05:25:20;24.20;99.90
43183;DHT22;28802;38.578;-0.066;2022-08-03T05:27:46;24.30;99.90
43183;DHT22;28802;38.578;-0.066;2022-08-03T05:30:12;24.50;99.90
43183;DHT22;28802;38.578;-0.066;2022-08-03T05:32:38;24.70;99.90
43183;DHT22;28802;38.578;-0.066;2022-08-03T05:35:04;24.80;99.90
43183;DHT22;28802;38.578;-0.066;2022-08-03T05:37:30;25.00;99.90
43183;DHT22;28802;38.578;-0.066;2022-08-03T05:39:56;25.50;99.90
43183;DHT22;28802;38.578;-0.066;2022-08-03T05:42:22;26.20;99.90
43183;DHT22;28802;38.578;-0.066;2022-08-03T05:44:48;26.80;99.90
43183;DHT22;28802;38.578;-0.066;2022-08-03T05:47:14;27.10;99.90
43183;DHT22;28802;38.578;-0.066;2022-08-03T05:49:40;27.40;99.90
43183;DHT22;28802;38.578;-0.066;2022-08-03T05:52:06;27.50;99.90
43183;DHT22;28802;38.578;-0.066;2022-08-03T05:54:31;27.70;99.90
43183;DHT22;28802;38.578;-0.066;2022-08-03T05:56:57;28.00;99.90
43183;DHT22;28802;38.578;-0.066;2022-08-03T05:59:24;27.90;99.90
43183;DHT22;28802;38.578;-0.066;2022-08-03T06:01:51;28.20;99.90
43183;DHT22;28802;38.578;-0.066;2022-08-03T06:04:16;28.70;99.90
43183;DHT22;28802;38.578;-0.066;2022-08-03T06:06:42;29.50;99.90
43183;DHT22;28802;38.578;-0.066;2022-08-03T06:09:09;30.10;99.90
43183;DHT22;28802;38.578;-0.066;2022-08-03T06:11:35;30.50;99.90
43183;DHT22;28802;38.578;-0.066;2022-08-03T06:14:02;31.20;99.90
43183;DHT22;28802;38.578;-0.066;2022-08-03T06:16:28;31.90;99.90
43183;DHT22;28802;38.578;-0.066;2022-08-03T06:18:54;32.10;99.90
43183;DHT22;28802;38.578;-0.066;2022-08-03T06:21:20;32.10;99.90
43183;DHT22;28802;38.578;-0.066;2022-08-03T06:23:45;32.40;99.90
43183;DHT22;28802;38.578;-0.066;2022-08-03T06:26:12;32.90;99.90
43183;DHT22;28802;38.578;-0.066;2022-08-03T06:28:38;33.10;99.90
43183;DHT22;28802;38.578;-0.066;2022-08-03T06:31:04;33.40;99.90
43183;DHT22;28802;38.578;-0.066;2022-08-03T06:33:30;33.70;99.90
43183;DHT22;28802;38.578;-0.066;2022-08-03T06:35:56;34.50;99.90
43183;DHT22;28802;38.578;-0.066;2022-08-03T06:38:22;35.20;99.90
43183;DHT22;28802;38.578;-0.066;2022-08-03T06:40:48;35.70;99.90
43183;DHT22;28802;38.578;-0.066;2022-08-03T06:43:14;35.90;99.90
43183;DHT22;28802;38.578;-0.066;2022-08-03T06:45:41;35.50;99.90
43183;DHT22;28802;38.578;-0.066;2022-08-03T06:48:10;35.60;99.90
43183;DHT22;28802;38.578;-0.066;2022-08-03T06:50:38;35.80;99.90
43183;DHT22;28802;38.578;-0.066;2022-08-03T06:53:04;35.50;99.90
43183;DHT22;28802;38.578;-0.066;2022-08-03T06:55:31;36.40;99.90
43183;DHT22;28802;38.578;-0.066;2022-08-03T06:57:57;37.20;99.90
43183;DHT22;28802;38.578;-0.066;2022-08-03T07:00:23;37.20;99.90
43183;DHT22;28802;38.578;-0.066;2022-08-03T07:02:50;37.00;99.90
43183;DHT22;28802;38.578;-0.066;2022-08-03T07:05:16;37.30;99.90
43183;DHT22;28802;38.578;-0.066;2022-08-03T07:07:42;38.10;99.90
43183;DHT22;28802;38.578;-0.066;2022-08-03T07:10:09;38.50;99.90
43183;DHT22;28802;38.578;-0.066;2022-08-03T07:12:36;39.10;99.90
43183;DHT22;28802;38.578;-0.066;2022-08-03T07:15:03;39.40;99.90
43183;DHT22;28802;38.578;-0.066;2022-08-03T07:17:31;38.70;99.90
43183;DHT22;28802;38.578;-0.066;2022-08-03T07:19:58;38.00;99.90
43183;DHT22;28802;38.578;-0.066;2022-08-03T07:22:25;37.50;99.90
43183;DHT22;28802;38.578;-0.066;2022-08-03T07:24:51;36.70;99.90
43183;DHT22;28802;38.578;-0.066;2022-08-03T07:27:17;37.00;99.90
43183;DHT22;28802;38.578;-0.066;2022-08-03T07:29:43;37.40;99.90
43183;DHT22;28802;38.578;-0.066;2022-08-03T07:32:09;37.60;99.90
43183;DHT22;28802;38.578;-0.066;2022-08-03T07:34:35;37.90;99.90
43183;DHT22;28802;38.578;-0.066;2022-08-03T07:37:01;37.90;99.90
43183;DHT22;28802;38.578;-0.066;2022-08-03T07:39:27;37.00;99.90
43183;DHT22;28802;38.578;-0.066;2022-08-03T07:41:53;36.80;99.90
43183;DHT22;28802;38.578;-0.066;2022-08-03T07:44:19;37.40;99.90
43183;DHT22;28802;38.578;-0.066;2022-08-03T07:46:45;37.40;99.90
43183;DHT22;28802;38.578;-0.066;2022-08-03T07:49:11;36.20;99.90
43183;DHT22;28802;38.578;-0.066;2022-08-03T07:51:37;36.10;99.90
43183;DHT22;28802;38.578;-0.066;2022-08-03T07:54:04;35.40;99.90
43183;DHT22;28802;38.578;-0.066;2022-08-03T07:56:30;35.70;99.90
43183;DHT22;28802;38.578;-0.066;2022-08-03T07:58:56;36.30;99.90
43183;DHT22;28802;38.578;-0.066;2022-08-03T08:01:22;36.70;99.90
43183;DHT22;28802;38.578;-0.066;2022-08-03T08:03:49;35.40;99.90
43183;DHT22;28802;38.578;-0.066;2022-08-03T08:06:16;35.80;99.90
43183;DHT22;28802;38.578;-0.066;2022-08-03T08:08:42;36.70;99.90
43183;DHT22;28802;38.578;-0.066;2022-08-03T08:11:08;36.00;99.90
43183;DHT22;28802;38.578;-0.066;2022-08-03T08:13:37;35.30;99.90
43183;DHT22;28802;38.578;-0.066;2022-08-03T08:16:04;34.60;99.90
43183;DHT22;28802;38.578;-0.066;2022-08-03T08:18:30;34.30;99.90
43183;DHT22;28802;38.578;-0.066;2022-08-03T08:20:56;34.10;99.90
43183;DHT22;28802;38.578;-0.066;2022-08-03T08:23:22;34.50;99.90
43183;DHT22;28802;38.578;-0.066;2022-08-03T08:25:50;35.10;99.90
43183;DHT22;28802;38.578;-0.066;2022-08-03T08:28:17;37.30;99.90
43183;DHT22;28802;38.578;-0.066;2022-08-03T08:30:43;37.80;99.90
43183;DHT22;28802;38.578;-0.066;2022-08-03T08:33:10;37.50;99.90
43183;DHT22;28802;38.578;-0.066;2022-08-03T08:35:36;37.80;99.90
43183;DHT22;28802;38.578;-0.066;2022-08-03T08:38:02;37.90;99.90
43183;DHT22;28802;38.578;-0.066;2022-08-03T08:40:28;38.00;99.90
43183;DHT22;28802;38.578;-0.066;2022-08-03T08:42:54;37.30;99.90
43183;DHT22;28802;38.578;-0.066;2022-08-03T08:45:20;36.30;99.90
43183;DHT22;28802;38.578;-0.066;2022-08-03T08:47:47;36.50;99.90
43183;DHT22;28802;38.578;-0.066;2022-08-03T08:50:20;37.60;99.90
43183;DHT22;28802;38.578;-0.066;2022-08-03T08:52:48;37.80;99.90
43183;DHT22;28802;38.578;-0.066;2022-08-03T08:55:19;38.30;99.90
43183;DHT22;28802;38.578;-0.066;2022-08-03T08:58:11;39.40;99.90
43183;DHT22;28802;38.578;-0.066;2022-08-03T09:00:38;39.10;99.90
43183;DHT22;28802;38.578;-0.066;2022-08-03T09:03:04;39.00;99.90
43183;DHT22;28802;38.578;-0.066;2022-08-03T09:05:30;39.70;99.90
43183;DHT22;28802;38.578;-0.066;2022-08-03T09:07:57;39.80;99.90
43183;DHT22;28802;38.578;-0.066;2022-08-03T09:10:23;39.80;99.00
43183;DHT22;28802;38.578;-0.066;2022-08-03T09:12:51;38.30;99.90
43183;DHT22;28802;38.578;-0.066;2022-08-03T09:15:22;38.60;99.90
43183;DHT22;28802;38.578;-0.066;2022-08-03T09:17:49;38.90;99.90
43183;DHT22;28802;38.578;-0.066;2022-08-03T09:20:17;39.30;99.80
43183;DHT22;28802;38.578;-0.066;2022-08-03T09:23:02;39.30;99.70
43183;DHT22;28802;38.578;-0.066;2022-08-03T09:25:33;39.40;99.80
43183;DHT22;28802;38.578;-0.066;2022-08-03T09:28:10;40.30;98.90
43183;DHT22;28802;38.578;-0.066;2022-08-03T09:30:38;40.10;99.40
43183;DHT22;28802;38.578;-0.066;2022-08-03T09:33:07;39.40;99.90
43183;DHT22;28802;38.578;-0.066;2022-08-03T09:35:42;38.90;99.90
43183;DHT22;28802;38.578;-0.066;2022-08-03T09:40:48;38.70;99.90
43183;DHT22;28802;38.578;-0.066;2022-08-03T09:43:15;38.60;99.90
43183;DHT22;28802;38.578;-0.066;2022-08-03T09:45:42;38.50;99.90
43183;DHT22;28802;38.578;-0.066;2022-08-03T09:48:25;38.80;99.90
43183;DHT22;28802;38.578;-0.066;2022-08-03T09:53:22;39.10;99.90
43183;DHT22;28802;38.578;-0.066;2022-08-03T09:56:00;38.70;99.90
43183;DHT22;28802;38.578;-0.066;2022-08-03T09:58:28;38.90;99.90
43183;DHT22;28802;38.578;-0.066;2022-08-03T10:00:55;38.60;99.90
43183;DHT22;28802;38.578;-0.066;2022-08-03T10:03:22;38.50;99.90
43183;DHT22;28802;38.578;-0.066;2022-08-03T10:05:48;38.40;99.90
43183;DHT22;28802;38.578;-0.066;2022-08-03T10:08:16;38.20;99.90
43183;DHT22;28802;38.578;-0.066;2022-08-03T10:10:44;38.20;99.90
43183;DHT22;28802;38.578;-0.066;2022-08-03T10:13:16;38.60;99.90
43183;DHT22;28802;38.578;-0.066;2022-08-03T10:15:43;38.50;99.90
43183;DHT22;28802;38.578;-0.066;2022-08-03T10:18:09;38.70;99.90
43183;DHT22;28802;38.578;-0.066;2022-08-03T10:21:08;39.20;99.90
43183;DHT22;28802;38.578;-0.066;2022-08-03T10:23:37;39.30;99.90
43183;DHT22;28802;38.578;-0.066;2022-08-03T10:26:06;39.60;99.90
43183;DHT22;28802;38.578;-0.066;2022-08-03T10:28:40;39.40;99.90
43183;DHT22;28802;38.578;-0.066;2022-08-03T10:31:07;39.70;99.90
43183;DHT22;28802;38.578;-0.066;2022-08-03T10:33:37;39.10;99.90
43183;DHT22;28802;38.578;-0.066;2022-08-03T10:36:07;38.20;99.90
43183;DHT22;28802;38.578;-0.066;2022-08-03T10:38:41;38.00;99.90
43183;DHT22;28802;38.578;-0.066;2022-08-03T10:41:11;39.10;99.90
43183;DHT22;28802;38.578;-0.066;2022-08-03T10:43:52;39.90;99.90
43183;DHT22;28802;38.578;-0.066;2022-08-03T10:46:20;40.30;98.80
43183;DHT22;28802;38.578;-0.066;2022-08-03T10:48:47;39.40;99.90
43183;DHT22;28802;38.578;-0.066;2022-08-03T10:51:15;38.80;99.90
43183;DHT22;28802;38.578;-0.066;2022-08-03T10:53:42;38.50;99.90
43183;DHT22;28802;38.578;-0.066;2022-08-03T10:59:19;37.90;99.30
43183;DHT22;28802;38.578;-0.066;2022-08-03T11:02:04;39.20;99.30
43183;DHT22;28802;38.578;-0.066;2022-08-03T11:04:32;39.30;98.40
43183;DHT22;28802;38.578;-0.066;2022-08-03T11:09:51;37.50;99.40
43183;DHT22;28802;38.578;-0.066;2022-08-03T11:12:29;37.60;99.40
43183;DHT22;28802;38.578;-0.066;2022-08-03T11:15:00;37.90;99.00
43183;DHT22;28802;38.578;-0.066;2022-08-03T11:17:27;37.90;99.50
43183;DHT22;28802;38.578;-0.066;2022-08-03T11:19:53;37.90;99.50
43183;DHT22;28802;38.578;-0.066;2022-08-03T11:22:20;37.70;99.30
43183;DHT22;28802;38.578;-0.066;2022-08-03T11:27:34;37.30;98.90
43183;DHT22;28802;38.578;-0.066;2022-08-03T11:30:06;37.40;98.90
43183;DHT22;28802;38.578;-0.066;2022-08-03T11:35:10;37.40;98.90
43183;DHT22;28802;38.578;-0.066;2022-08-03T11:40:52;38.30;98.20
43183;DHT22;28802;38.578;-0.066;2022-08-03T11:48:27;39.10;96.40
43183;DHT22;28802;38.578;-0.066;2022-08-03T11:50:53;38.80;96.90
43183;DHT22;28802;38.578;-0.066;2022-08-03T11:53:19;38.00;97.90
43183;DHT22;28802;38.578;-0.066;2022-08-03T11:55:46;38.20;96.80
43183;DHT22;28802;38.578;-0.066;2022-08-03T11:58:17;38.20;97.20
43183;DHT22;28802;38.578;-0.066;2022-08-03T12:00:43;38.50;96.30
43183;DHT22;28802;38.578;-0.066;2022-08-03T12:03:11;39.20;95.00
43183;DHT22;28802;38.578;-0.066;2022-08-03T12:05:49;38.50;95.70
43183;DHT22;28802;38.578;-0.066;2022-08-03T12:08:35;38.30;96.10
43183;DHT22;28802;38.578;-0.066;2022-08-03T12:11:03;38.30;95.20
43183;DHT22;28802;38.578;-0.066;2022-08-03T12:13:41;37.80;95.70
43183;DHT22;28802;38.578;-0.066;2022-08-03T12:16:07;37.90;96.20
43183;DHT22;28802;38.578;-0.066;2022-08-03T12:18:34;37.60;96.20
43183;DHT22;28802;38.578;-0.066;2022-08-03T12:21:07;37.20;95.80
43183;DHT22;28802;38.578;-0.066;2022-08-03T12:23:34;37.50;95.90
43183;DHT22;28802;38.578;-0.066;2022-08-03T12:26:06;37.70;95.00
43183;DHT22;28802;38.578;-0.066;2022-08-03T12:28:33;36.90;95.70
43183;DHT22;28802;38.578;-0.066;2022-08-03T12:31:04;37.10;95.60
43183;DHT22;28802;38.578;-0.066;2022-08-03T12:33:31;37.00;95.20
43183;DHT22;28802;38.578;-0.066;2022-08-03T12:36:02;36.70;95.70
43183;DHT22;28802;38.578;-0.066;2022-08-03T12:38:30;36.60;96.50
43183;DHT22;28802;38.578;-0.066;2022-08-03T12:40:58;36.20;97.20
43183;DHT22;28802;38.578;-0.066;2022-08-03T12:43:25;36.40;97.00
43183;DHT22;28802;38.578;-0.066;2022-08-03T12:46:05;36.10;96.60
43183;DHT22;28802;38.578;-0.066;2022-08-03T12:48:31;36.00;97.30
43183;DHT22;28802;38.578;-0.066;2022-08-03T12:51:08;35.90;98.50
43183;DHT22;28802;38.578;-0.066;2022-08-03T12:53:34;35.40;99.30
43183;DHT22;28802;38.578;-0.066;2022-08-03T12:56:02;35.20;99.20
43183;DHT22;28802;38.578;-0.066;2022-08-03T12:58:35;35.30;98.30
43183;DHT22;28802;38.578;-0.066;2022-08-03T13:01:04;35.40;98.50
43183;DHT22;28802;38.578;-0.066;2022-08-03T13:03:43;35.60;98.20
43183;DHT22;28802;38.578;-0.066;2022-08-03T13:06:11;35.40;98.00
43183;DHT22;28802;38.578;-0.066;2022-08-03T13:08:38;35.30;98.90
43183;DHT22;28802;38.578;-0.066;2022-08-03T13:11:18;35.00;98.70
43183;DHT22;28802;38.578;-0.066;2022-08-03T13:13:44;34.80;98.40
43183;DHT22;28802;38.578;-0.066;2022-08-03T13:16:10;34.80;98.60
43183;DHT22;28802;38.578;-0.066;2022-08-03T13:18:36;34.70;99.10
43183;DHT22;28802;38.578;-0.066;2022-08-03T13:21:02;34.50;98.80
43183;DHT22;28802;38.578;-0.066;2022-08-03T13:23:28;34.40;99.20
43183;DHT22;28802;38.578;-0.066;2022-08-03T13:25:54;34.50;99.90
43183;DHT22;28802;38.578;-0.066;2022-08-03T13:28:20;34.50;99.70
43183;DHT22;28802;38.578;-0.066;2022-08-03T13:30:46;34.40;99.50
43183;DHT22;28802;38.578;-0.066;2022-08-03T13:33:12;34.30;99.80
43183;DHT22;28802;38.578;-0.066;2022-08-03T13:35:38;34.50;99.80
43183;DHT22;28802;38.578;-0.066;2022-08-03T13:38:03;34.60;99.60
43183;DHT22;28802;38.578;-0.066;2022-08-03T13:40:29;34.50;99.20
43183;DHT22;28802;38.578;-0.066;2022-08-03T13:42:57;34.40;99.10
43183;DHT22;28802;38.578;-0.066;2022-08-03T13:45:23;34.40;99.10
43183;DHT22;28802;38.578;-0.066;2022-08-03T13:47:49;34.30;99.30
43183;DHT22;28802;38.578;-0.066;2022-08-03T13:50:15;34.30;99.10
43183;DHT22;28802;38.578;-0.066;2022-08-03T13:52:41;34.40;99.30
43183;DHT22;28802;38.578;-0.066;2022-08-03T13:55:07;34.40;98.80
43183;DHT22;28802;38.578;-0.066;2022-08-03T13:57:34;34.40;98.90
43183;DHT22;28802;38.578;-0.066;2022-08-03T14:00:00;34.30;99.50
43183;DHT22;28802;38.578;-0.066;2022-08-03T14:02:29;34.40;99.50
43183;DHT22;28802;38.578;-0.066;2022-08-03T14:04:55;34.40;99.20
43183;DHT22;28802;38.578;-0.066;2022-08-03T14:07:21;34.30;98.70
43183;DHT22;28802;38.578;-0.066;2022-08-03T14:09:47;34.30;99.00
43183;DHT22;28802;38.578;-0.066;2022-08-03T14:12:13;34.40;98.80
43183;DHT22;28802;38.578;-0.066;2022-08-03T14:14:39;34.30;98.80
43183;DHT22;28802;38.578;-0.066;2022-08-03T14:17:06;34.10;99.10
43183;DHT22;28802;38.578;-0.066;2022-08-03T14:19:32;34.10;99.20
43183;DHT22;28802;38.578;-0.066;2022-08-03T14:21:58;34.10;99.20
43183;DHT22;28802;38.578;-0.066;2022-08-03T14:24:24;34.10;99.60
43183;DHT22;28802;38.578;-0.066;2022-08-03T14:26:50;34.10;99.70
43183;DHT22;28802;38.578;-0.066;2022-08-03T14:29:16;34.20;99.90
43183;DHT22;28802;38.578;-0.066;2022-08-03T14:31:42;34.40;98.60
43183;DHT22;28802;38.578;-0.066;2022-08-03T14:34:09;34.50;99.40
43183;DHT22;28802;38.578;-0.066;2022-08-03T14:36:35;34.60;98.60
43183;DHT22;28802;38.578;-0.066;2022-08-03T14:39:01;34.50;98.70
43183;DHT22;28802;38.578;-0.066;2022-08-03T14:41:27;34.30;98.80
43183;DHT22;28802;38.578;-0.066;2022-08-03T14:43:53;34.20;99.10
43183;DHT22;28802;38.578;-0.066;2022-08-03T14:46:21;34.20;99.70
43183;DHT22;28802;38.578;-0.066;2022-08-03T14:48:47;34.30;99.60
43183;DHT22;28802;38.578;-0.066;2022-08-03T14:51:13;34.40;99.40
43183;DHT22;28802;38.578;-0.066;2022-08-03T14:53:39;34.30;99.70
43183;DHT22;28802;38.578;-0.066;2022-08-03T14:56:06;34.20;99.90
43183;DHT22;28802;38.578;-0.066;2022-08-03T14:58:32;34.00;99.90
43183;DHT22;28802;38.578;-0.066;2022-08-03T15:00:58;34.10;99.90
43183;DHT22;28802;38.578;-0.066;2022-08-03T15:03:24;34.10;99.90
43183;DHT22;28802;38.578;-0.066;2022-08-03T15:05:55;34.10;99.90
43183;DHT22;28802;38.578;-0.066;2022-08-03T15:08:23;34.30;99.90
43183;DHT22;28802;38.578;-0.066;2022-08-03T15:10:49;34.20;99.90
43183;DHT22;28802;38.578;-0.066;2022-08-03T15:13:16;34.10;99.90
43183;DHT22;28802;38.578;-0.066;2022-08-03T15:15:43;33.90;99.90
43183;DHT22;28802;38.578;-0.066;2022-08-03T15:18:09;33.90;99.90
43183;DHT22;28802;38.578;-0.066;2022-08-03T15:20:35;34.00;99.90
43183;DHT22;28802;38.578;-0.066;2022-08-03T15:23:00;33.80;99.90
43183;DHT22;28802;38.578;-0.066;2022-08-03T15:25:26;33.60;99.90
43183;DHT22;28802;38.578;-0.066;2022-08-03T15:27:53;33.50;99.90
43183;DHT22;28802;38.578;-0.066;2022-08-03T15:30:19;33.40;99.90
43183;DHT22;28802;38.578;-0.066;2022-08-03T15:32:45;33.40;99.90
43183;DHT22;28802;38.578;-0.066;2022-08-03T15:35:11;33.30;99.90
43183;DHT22;28802;38.578;-0.066;2022-08-03T15:37:37;33.30;99.90
43183;DHT22;28802;38.578;-0.066;2022-08-03T15:40:03;33.30;99.90
43183;DHT22;28802;38.578;-0.066;2022-08-03T15:42:30;33.20;99.90
43183;DHT22;28802;38.578;-0.066;2022-08-03T15:44:57;33.10;99.90
43183;DHT22;28802;38.578;-0.066;2022-08-03T15:47:23;33.10;99.90
43183;DHT22;28802;38.578;-0.066;2022-08-03T15:49:49;33.00;99.90
43183;DHT22;28802;38.578;-0.066;2022-08-03T15:52:15;33.10;99.90
43183;DHT22;28802;38.578;-0.066;2022-08-03T15:54:41;33.00;99.90
43183;DHT22;28802;38.578;-0.066;2022-08-03T15:57:07;32.90;99.90
43183;DHT22;28802;38.578;-0.066;2022-08-03T15:59:33;32.80;99.90
43183;DHT22;28802;38.578;-0.066;2022-08-03T16:01:59;32.80;99.90
43183;DHT22;28802;38.578;-0.066;2022-08-03T16:04:25;32.80;99.90
43183;DHT22;28802;38.578;-0.066;2022-08-03T16:06:50;32.80;99.90
43183;DHT22;28802;38.578;-0.066;2022-08-03T16:09:16;32.70;99.90
43183;DHT22;28802;38.578;-0.066;2022-08-03T16:11:42;32.70;99.90
43183;DHT22;28802;38.578;-0.066;2022-08-03T16:14:09;32.70;99.90
43183;DHT22;28802;38.578;-0.066;2022-08-03T16:16:35;32.70;99.90
43183;DHT22;28802;38.578;-0.066;2022-08-03T16:19:05;32.90;99.90